Wetterdaten: Woche 03.10.16 - 09.10.16 (KW40)
Datum Zeit Temp. A. Feuchte A. Luftdruck Regen Wind Richtung Sonnenschein ET UV Solar Taupunkt Windchill Windben Empfang
03.10.2016 00:00 11,2 C 96 % 1018,4 hPa 0,4 l/m 5,7 km/h (1 Bft) S-SW 0,00 h 0,000 mm 0,0 UV-I 0 W/m 10,6 C 11,1 C 9,2 km/h (2 Bft) 95,66 %
03.10.2016 01:00 11,1 C 96 % 1018,6 hPa 0,0 l/m 6,4 km/h (2 Bft) SW 0,00 h 0,000 mm 0,0 UV-I 0 W/m 10,4 C 10,7 C 10,4 km/h (2 Bft) 98,36 %
03.10.2016 02:00 11,0 C 96 % 1019,2 hPa 0,0 l/m 7,8 km/h (2 Bft) SW 0,00 h 0,000 mm 0,0 UV-I 0 W/m 10,4 C 10,0 C 12,3 km/h (3 Bft) 98,65 %
03.10.2016 03:00 10,9 C 95 % 1019,3 hPa 0,0 l/m 9,9 km/h (2 Bft) SW 0,00 h 0,000 mm 0,0 UV-I 0 W/m 10,1 C 8,7 C 15,2 km/h (3 Bft) 98,41 %
03.10.2016 04:00 10,8 C 95 % 1019,7 hPa 0,0 l/m 10,7 km/h (2 Bft) SW 0,00 h 0,000 mm 0,0 UV-I 0 W/m 10,0 C 8,1 C 16,3 km/h (3 Bft) 99,37 %
03.10.2016 05:00 10,5 C 94 % 1020,1 hPa 0,0 l/m 8,2 km/h (2 Bft) SW 0,00 h 0,000 mm 0,0 UV-I 0 W/m 9,6 C 9,3 C 13,0 km/h (3 Bft) 98,08 %
03.10.2016 06:00 10,3 C 93 % 1020,3 hPa 0,0 l/m 9,8 km/h (2 Bft) SW 0,00 h 0,000 mm 0,0 UV-I 0 W/m 9,3 C 8,1 C 14,9 km/h (3 Bft) 99,39 %
03.10.2016 07:00 10,4 C 91 % 1020,7 hPa 0,0 l/m 8,6 km/h (2 Bft) SW 0,00 h 0,000 mm 0,0 UV-I 13 W/m 9,0 C 8,9 C 13,3 km/h (3 Bft) 97,56 %
03.10.2016 08:00 10,7 C 89 % 1021,2 hPa 0,0 l/m 11,0 km/h (2 Bft) SW 0,00 h 0,025 mm 0,0 UV-I 72 W/m 8,9 C 7,9 C 16,9 km/h (3 Bft) 99,28 %
03.10.2016 09:00 10,6 C 89 % 1021,8 hPa 0,2 l/m 13,1 km/h (3 Bft) W-SW 0,00 h 0,051 mm 0,0 UV-I 57 W/m 8,8 C 6,7 C 20,1 km/h (4 Bft) 97,73 %
03.10.2016 10:00 10,3 C 93 % 1022,2 hPa 0,2 l/m 12,4 km/h (3 Bft) SW 0,00 h 0,051 mm 0,5 UV-I 96 W/m 9,2 C 6,7 C 19,8 km/h (4 Bft) 98,56 %
03.10.2016 11:00 11,3 C 90 % 1022,4 hPa 0,0 l/m 15,3 km/h (3 Bft) SW 0,13 h 0,051 mm 1,0 UV-I 217 W/m 9,8 C 6,8 C 23,8 km/h (4 Bft) 98,11 %
03.10.2016 12:00 11,8 C 86 % 1022,6 hPa 0,0 l/m 17,0 km/h (3 Bft) SW 0,10 h 0,127 mm 1,2 UV-I 216 W/m 9,5 C 6,7 C 26,7 km/h (4 Bft) 99,31 %
03.10.2016 13:00 12,6 C 82 % 1022,2 hPa 0,0 l/m 18,6 km/h (3 Bft) SW 0,23 h 0,127 mm 1,3 UV-I 291 W/m 9,6 C 7,1 C 28,6 km/h (4 Bft) 98,34 %
03.10.2016 14:00 12,8 C 83 % 1022,0 hPa 0,0 l/m 16,1 km/h (3 Bft) W-SW 0,13 h 0,178 mm 1,1 UV-I 231 W/m 10,0 C 8,2 C 24,2 km/h (4 Bft) 98,81 %
03.10.2016 15:00 13,4 C 77 % 1022,0 hPa 0,2 l/m 16,0 km/h (3 Bft) W-SW 0,33 h 0,152 mm 1,0 UV-I 262 W/m 9,5 C 9,0 C 24,9 km/h (4 Bft) 98,48 %
03.10.2016 16:00 12,8 C 81 % 1022,0 hPa 1,2 l/m 11,7 km/h (2 Bft) W-SW 0,00 h 0,178 mm 0,5 UV-I 86 W/m 9,5 C 10,0 C 18,9 km/h (3 Bft) 99,13 %
03.10.2016 17:00 11,3 C 89 % 1022,2 hPa 0,0 l/m 10,5 km/h (2 Bft) W-SW 0,13 h 0,076 mm 0,0 UV-I 66 W/m 9,6 C 8,9 C 15,7 km/h (3 Bft) 98,45 %
03.10.2016 18:00 11,1 C 89 % 1022,6 hPa 0,2 l/m 11,0 km/h (2 Bft) W-SW 0,07 h 0,051 mm 0,0 UV-I 12 W/m 9,4 C 8,4 C 17,6 km/h (3 Bft) 99,25 %
03.10.2016 19:00 10,3 C 92 % 1023,5 hPa 0,2 l/m 8,0 km/h (2 Bft) W-SW 0,00 h 0,025 mm 0,0 UV-I 0 W/m 9,0 C 8,9 C 14,9 km/h (3 Bft) 98,16 %
03.10.2016 20:00 10,1 C 89 % 1023,8 hPa 0,0 l/m 11,5 km/h (2 Bft) W-SW 0,00 h 0,000 mm 0,0 UV-I 0 W/m 8,4 C 6,9 C 18,2 km/h (3 Bft) 98,89 %
03.10.2016 21:00 10,1 C 88 % 1024,1 hPa 0,0 l/m 10,0 km/h (2 Bft) W-SW 0,00 h 0,026 mm 0,0 UV-I 0 W/m 8,3 C 7,8 C 15,3 km/h (3 Bft) 98,05 %
03.10.2016 22:00 9,9 C 90 % 1024,2 hPa 0,0 l/m 11,3 km/h (2 Bft) W-SW 0,00 h 0,025 mm 0,0 UV-I 0 W/m 8,4 C 6,9 C 17,2 km/h (3 Bft) 98,78 %
03.10.2016 23:00 9,8 C 91 % 1024,0 hPa 0,0 l/m 14,1 km/h (3 Bft) SW 0,00 h 0,025 mm 0,0 UV-I 0 W/m 8,4 C 5,3 C 20,9 km/h (4 Bft) 98,18 %
04.10.2016 00:00 9,8 C 92 % 1023,9 hPa 0,0 l/m 15,5 km/h (3 Bft) SW 0,00 h 0,000 mm 0,0 UV-I 0 W/m 8,6 C 4,7 C 23,1 km/h (4 Bft) 99,30 %
04.10.2016 01:00 9,8 C 91 % 1024,0 hPa 0,0 l/m 11,8 km/h (2 Bft) SW 0,00 h 0,025 mm 0,0 UV-I 0 W/m 8,4 C 6,4 C 18,3 km/h (3 Bft) 97,96 %
04.10.2016 02:00 9,7 C 92 % 1024,0 hPa 0,0 l/m 11,9 km/h (2 Bft) W-SW 0,00 h 0,000 mm 0,0 UV-I 0 W/m 8,4 C 6,2 C 18,5 km/h (3 Bft) 99,40 %
04.10.2016 03:00 9,6 C 93 % 1023,9 hPa 0,0 l/m 9,2 km/h (2 Bft) W-SW 0,00 h 0,000 mm 0,0 UV-I 0 W/m 8,5 C 7,7 C 14,1 km/h (3 Bft) 97,56 %
04.10.2016 04:00 9,6 C 93 % 1023,7 hPa 0,0 l/m 9,8 km/h (2 Bft) W-SW 0,00 h 0,000 mm 0,0 UV-I 0 W/m 8,6 C 7,3 C 14,9 km/h (3 Bft) 98,96 %
04.10.2016 05:00 9,9 C 92 % 1023,6 hPa 0,0 l/m 12,1 km/h (2 Bft) W-SW 0,00 h 0,000 mm 0,0 UV-I 0 W/m 8,6 C 6,3 C 18,1 km/h (3 Bft) 98,18 %
04.10.2016 06:00 9,8 C 92 % 1023,5 hPa 0,2 l/m 12,9 km/h (3 Bft) W-SW 0,00 h 0,000 mm 0,0 UV-I 0 W/m 8,5 C 5,9 C 19,8 km/h (4 Bft) 99,09 %
04.10.2016 07:00 9,8 C 92 % 1023,5 hPa 0,0 l/m 14,2 km/h (3 Bft) W-SW 0,00 h 0,026 mm 0,0 UV-I 7 W/m 8,5 C 5,3 C 21,5 km/h (4 Bft) 98,13 %
04.10.2016 08:00 9,7 C 92 % 1023,8 hPa 0,4 l/m 15,8 km/h (3 Bft) W-SW 0,00 h 0,025 mm 0,0 UV-I 18 W/m 8,5 C 4,6 C 23,5 km/h (4 Bft) 99,44 %
04.10.2016 09:00 9,6 C 94 % 1023,9 hPa 0,8 l/m 14,6 km/h (3 Bft) W-SW 0,00 h 0,026 mm 0,0 UV-I 34 W/m 8,6 C 4,8 C 21,9 km/h (4 Bft) 97,86 %
04.10.2016 10:00 9,7 C 94 % 1023,9 hPa 0,6 l/m 17,5 km/h (3 Bft) W-SW 0,00 h 0,025 mm 0,0 UV-I 62 W/m 8,9 C 3,9 C 25,7 km/h (4 Bft) 99,41 %
04.10.2016 11:00 9,9 C 94 % 1024,1 hPa 0,0 l/m 16,6 km/h (3 Bft) W 0,00 h 0,051 mm 0,3 UV-I 72 W/m 8,9 C 4,4 C 24,4 km/h (4 Bft) 98,10 %
04.10.2016 12:00 10,3 C 92 % 1024,2 hPa 0,2 l/m 15,4 km/h (3 Bft) W 0,00 h 0,051 mm 0,5 UV-I 70 W/m 9,1 C 5,3 C 24,2 km/h (4 Bft) 98,98 %
04.10.2016 13:00 10,5 C 93 % 1024,4 hPa 1,4 l/m 13,6 km/h (3 Bft) W-SW 0,00 h 0,050 mm 0,0 UV-I 55 W/m 9,5 C 6,4 C 20,3 km/h (4 Bft) 97,86 %
04.10.2016 14:00 10,3 C 95 % 1024,7 hPa 2,4 l/m 15,0 km/h (3 Bft) W-SW 0,00 h 0,026 mm 0,2 UV-I 68 W/m 9,6 C 5,5 C 22,6 km/h (4 Bft) 99,17 %
04.10.2016 15:00 10,4 C 96 % 1025,1 hPa 2,4 l/m 11,8 km/h (2 Bft) W-SW 0,00 h 0,051 mm 0,0 UV-I 47 W/m 9,8 C 7,2 C 17,8 km/h (3 Bft) 98,00 %
04.10.2016 16:00 10,5 C 96 % 1025,4 hPa 0,8 l/m 6,0 km/h (2 Bft) W-SW 0,00 h 0,025 mm 0,0 UV-I 31 W/m 9,9 C 10,0 C 12,1 km/h (2 Bft) 99,76 %
04.10.2016 17:00 10,7 C 95 % 1026,0 hPa 0,0 l/m 4,3 km/h (1 Bft) N-NW 0,00 h 0,025 mm 0,0 UV-I 33 W/m 9,9 C 10,5 C 9,6 km/h (2 Bft) 97,51 %
04.10.2016 18:00 10,4 C 90 % 1026,9 hPa 0,0 l/m 5,1 km/h (1 Bft) N-NW 0,00 h 0,026 mm 0,0 UV-I 6 W/m 8,8 C 10,2 C 12,4 km/h (3 Bft) 99,37 %
04.10.2016 19:00 10,1 C 88 % 1027,7 hPa 0,0 l/m 2,9 km/h (1 Bft) N-NW 0,00 h 0,000 mm 0,0 UV-I 0 W/m 8,2 C 10,1 C 6,9 km/h (2 Bft) 98,07 %
04.10.2016 20:00 9,9 C 86 % 1028,1 hPa 0,0 l/m 3,5 km/h (1 Bft) N-NW 0,00 h 0,000 mm 0,0 UV-I 0 W/m 7,7 C 9,9 C 7,5 km/h (2 Bft) 99,62 %
04.10.2016 21:00 9,3 C 84 % 1028,4 hPa 0,0 l/m 4,6 km/h (1 Bft) N-NW 0,00 h 0,000 mm 0,0 UV-I 0 W/m 6,7 C 9,3 C 9,7 km/h (2 Bft) 98,22 %
04.10.2016 22:00 8,7 C 81 % 1028,6 hPa 0,0 l/m 4,0 km/h (1 Bft) N-NW 0,00 h 0,000 mm 0,0 UV-I 0 W/m 5,7 C 8,7 C 8,5 km/h (2 Bft) 99,28 %
04.10.2016 23:00 7,7 C 83 % 1028,7 hPa 0,0 l/m 3,1 km/h (1 Bft) N-NO 0,00 h 0,000 mm 0,0 UV-I 0 W/m 4,9 C 7,7 C 5,5 km/h (1 Bft) 98,03 %
05.10.2016 00:00 6,2 C 88 % 1028,5 hPa 0,0 l/m 1,6 km/h (1 Bft) N-NO 0,00 h 0,000 mm 0,0 UV-I 0 W/m 4,3 C 6,2 C 2,9 km/h (1 Bft) 99,42 %
05.10.2016 01:00 4,7 C 93 % 1028,5 hPa 0,0 l/m 1,5 km/h (1 Bft) S 0,00 h 0,000 mm 0,0 UV-I 0 W/m 3,6 C 4,7 C 3,1 km/h (1 Bft) 98,38 %
05.10.2016 02:00 3,9 C 94 % 1028,6 hPa 0,0 l/m 2,6 km/h (1 Bft) S 0,00 h 0,000 mm 0,0 UV-I 0 W/m 2,9 C 3,9 C 4,1 km/h (1 Bft) 98,68 %
05.10.2016 03:00 3,4 C 95 % 1028,1 hPa 0,0 l/m 4,0 km/h (1 Bft) S-SW 0,00 h 0,000 mm 0,0 UV-I 0 W/m 2,8 C 3,4 C 5,8 km/h (2 Bft) 98,99 %
05.10.2016 04:00 3,6 C 96 % 1027,7 hPa 0,0 l/m 2,9 km/h (1 Bft) S-SW 0,00 h 0,000 mm 0,0 UV-I 0 W/m 3,0 C 3,6 C 5,0 km/h (1 Bft) 98,47 %
05.10.2016 05:00 3,6 C 96 % 1027,6 hPa 0,0 l/m 1,5 km/h (1 Bft) S 0,00 h 0,000 mm 0,0 UV-I 0 W/m 3,0 C 3,6 C 3,6 km/h (1 Bft) 99,36 %
05.10.2016 06:00 4,1 C 96 % 1027,5 hPa 0,0 l/m 2,1 km/h (1 Bft) W 0,00 h 0,000 mm 0,0 UV-I 0 W/m 3,6 C 4,1 C 4,2 km/h (1 Bft) 98,12 %
05.10.2016 07:00 4,3 C 95 % 1027,3 hPa 0,0 l/m 1,3 km/h (1 Bft) NW 0,30 h 0,000 mm 0,0 UV-I 35 W/m 3,6 C 4,3 C 3,7 km/h (1 Bft) 98,66 %
05.10.2016 08:00 5,5 C 89 % 1027,4 hPa 0,0 l/m 2,5 km/h (1 Bft) N-NW 1,00 h 0,025 mm 0,0 UV-I 179 W/m 3,8 C 5,5 C 5,9 km/h (2 Bft) 98,53 %
05.10.2016 09:00 7,1 C 77 % 1027,3 hPa 0,0 l/m 4,4 km/h (1 Bft) N-NW 1,00 h 0,077 mm 0,7 UV-I 329 W/m 3,3 C 7,0 C 10,5 km/h (2 Bft) 98,58 %
05.10.2016 10:00 8,1 C 72 % 1027,2 hPa 0,0 l/m 3,6 km/h (1 Bft) N-NO 0,73 h 0,152 mm 1,2 UV-I 395 W/m 3,3 C 8,0 C 8,4 km/h (2 Bft) 99,01 %
05.10.2016 11:00 8,6 C 67 % 1027,2 hPa 0,0 l/m 3,4 km/h (1 Bft) NW 0,30 h 0,178 mm 1,4 UV-I 294 W/m 2,8 C 8,6 C 8,0 km/h (2 Bft) 98,58 %
05.10.2016 12:00 9,4 C 63 % 1026,4 hPa 0,0 l/m 5,1 km/h (1 Bft) W 0,77 h 0,152 mm 1,9 UV-I 497 W/m 2,7 C 8,9 C 9,9 km/h (2 Bft) 98,97 %
05.10.2016 13:00 9,9 C 60 % 1025,4 hPa 0,0 l/m 7,4 km/h (2 Bft) W 0,50 h 0,254 mm 1,7 UV-I 400 W/m 2,5 C 8,9 C 14,4 km/h (3 Bft) 98,07 %
05.10.2016 14:00 9,0 C 67 % 1024,8 hPa 0,0 l/m 5,9 km/h (2 Bft) W-SW 0,30 h 0,203 mm 1,0 UV-I 255 W/m 3,2 C 8,6 C 12,9 km/h (3 Bft) 99,23 %
05.10.2016 15:00 8,8 C 73 % 1024,3 hPa 0,6 l/m 7,9 km/h (2 Bft) W 0,47 h 0,153 mm 0,8 UV-I 232 W/m 4,3 C 7,5 C 14,5 km/h (3 Bft) 98,59 %
05.10.2016 16:00 8,6 C 72 % 1024,0 hPa 0,0 l/m 5,8 km/h (2 Bft) W 0,37 h 0,127 mm 0,5 UV-I 164 W/m 3,9 C 8,1 C 10,7 km/h (2 Bft) 97,98 %
05.10.2016 17:00 8,6 C 71 % 1023,5 hPa 0,0 l/m 8,8 km/h (2 Bft) W 0,17 h 0,076 mm 0,0 UV-I 81 W/m 3,8 C 6,9 C 15,6 km/h (3 Bft) 99,53 %
05.10.2016 18:00 7,5 C 76 % 1023,5 hPa 0,0 l/m 10,5 km/h (2 Bft) W-SW 0,22 h 0,076 mm 0,0 UV-I 21 W/m 3,5 C 4,6 C 16,5 km/h (3 Bft) 98,46 %
05.10.2016 19:00 6,8 C 84 % 1023,4 hPa 0,2 l/m 5,3 km/h (1 Bft) W 0,00 h 0,026 mm 0,0 UV-I 0 W/m 4,3 C 6,7 C 9,9 km/h (2 Bft) 99,05 %
05.10.2016 20:00 6,8 C 85 % 1022,8 hPa 0,0 l/m 8,3 km/h (2 Bft) W-SW 0,00 h 0,000 mm 0,0 UV-I 0 W/m 4,5 C 5,1 C 13,2 km/h (3 Bft) 98,73 %
05.10.2016 21:00 6,7 C 85 % 1022,1 hPa 0,0 l/m 12,9 km/h (3 Bft) W-SW 0,00 h 0,025 mm 0,0 UV-I 0 W/m 4,4 C 2,3 C 19,3 km/h (3 Bft) 98,92 %
05.10.2016 22:00 6,8 C 84 % 1021,5 hPa 0,0 l/m 15,3 km/h (3 Bft) W-SW 0,00 h 0,025 mm 0,0 UV-I 0 W/m 4,3 C 1,1 C 22,9 km/h (4 Bft) 98,75 %
05.10.2016 23:00 6,7 C 85 % 1020,9 hPa 0,0 l/m 14,2 km/h (3 Bft) W-SW 0,00 h 0,026 mm 0,0 UV-I 0 W/m 4,3 C 1,6 C 21,1 km/h (4 Bft) 98,63 %
06.10.2016 00:00 6,7 C 85 % 1020,0 hPa 0,0 l/m 17,9 km/h (3 Bft) W-SW 0,00 h 0,000 mm 0,0 UV-I 0 W/m 4,4 C -0,2 C 26,7 km/h (4 Bft) 98,78 %
06.10.2016 01:00 6,6 C 85 % 1019,2 hPa 0,0 l/m 18,6 km/h (3 Bft) W-SW 0,00 h 0,025 mm 0,0 UV-I 0 W/m 4,2 C -0,5 C 28,1 km/h (4 Bft) 98,94 %
06.10.2016 02:00 6,3 C 88 % 1018,6 hPa 0,0 l/m 15,0 km/h (3 Bft) SW 0,00 h 0,026 mm 0,0 UV-I 0 W/m 4,4 C 0,7 C 23,0 km/h (4 Bft) 99,13 %
06.10.2016 03:00 6,1 C 90 % 1018,0 hPa 0,0 l/m 15,2 km/h (3 Bft) SW 0,00 h 0,025 mm 0,0 UV-I 0 W/m 4,6 C 0,3 C 23,8 km/h (4 Bft) 98,37 %
06.10.2016 04:00 5,9 C 92 % 1017,5 hPa 0,4 l/m 13,6 km/h (3 Bft) W-SW 0,00 h 0,026 mm 0,0 UV-I 0 W/m 4,7 C 0,9 C 20,9 km/h (4 Bft) 99,11 %
06.10.2016 05:00 5,7 C 94 % 1017,1 hPa 0,6 l/m 14,7 km/h (3 Bft) SW 0,00 h 0,000 mm 0,0 UV-I 0 W/m 4,8 C 0,2 C 21,9 km/h (4 Bft) 98,28 %
06.10.2016 06:00 5,7 C 95 % 1016,8 hPa 1,0 l/m 14,3 km/h (3 Bft) SW 0,00 h 0,000 mm 0,0 UV-I 0 W/m 4,9 C 0,3 C 21,8 km/h (4 Bft) 99,25 %
06.10.2016 07:00 5,7 C 95 % 1016,5 hPa 1,0 l/m 17,7 km/h (3 Bft) SW 0,00 h 0,000 mm 0,0 UV-I 10 W/m 4,9 C -1,4 C 27,2 km/h (4 Bft) 97,89 %
06.10.2016 08:00 5,6 C 95 % 1016,4 hPa 1,0 l/m 17,5 km/h (3 Bft) SW 0,00 h 0,000 mm 0,0 UV-I 22 W/m 4,9 C -1,3 C 26,4 km/h (4 Bft) 99,01 %
06.10.2016 09:00 5,6 C 95 % 1016,3 hPa 0,2 l/m 17,4 km/h (3 Bft) SW 0,00 h 0,025 mm 0,0 UV-I 41 W/m 4,9 C -1,2 C 27,8 km/h (4 Bft) 98,11 %
06.10.2016 10:00 6,0 C 95 % 1016,2 hPa 0,0 l/m 18,8 km/h (3 Bft) SW 0,00 h 0,025 mm 0,0 UV-I 71 W/m 5,2 C -1,3 C 28,8 km/h (4 Bft) 99,25 %
06.10.2016 11:00 6,4 C 93 % 1016,4 hPa 0,0 l/m 18,2 km/h (3 Bft) SW 0,00 h 0,026 mm 0,0 UV-I 57 W/m 5,3 C -0,7 C 27,6 km/h (4 Bft) 97,91 %
06.10.2016 12:00 6,6 C 93 % 1016,4 hPa 0,0 l/m 16,6 km/h (3 Bft) SW 0,00 h 0,025 mm 0,4 UV-I 68 W/m 5,6 C 0,4 C 26,0 km/h (4 Bft) 99,52 %
06.10.2016 13:00 6,9 C 93 % 1016,5 hPa 0,2 l/m 16,9 km/h (3 Bft) SW 0,00 h 0,051 mm 0,0 UV-I 61 W/m 5,7 C 0,5 C 26,1 km/h (4 Bft) 98,02 %
06.10.2016 14:00 7,2 C 91 % 1016,4 hPa 0,0 l/m 16,0 km/h (3 Bft) W-SW 0,00 h 0,025 mm 0,0 UV-I 59 W/m 5,8 C 1,4 C 25,4 km/h (4 Bft) 99,63 %
06.10.2016 15:00 7,3 C 93 % 1016,2 hPa 0,2 l/m 13,6 km/h (3 Bft) SW 0,00 h 0,051 mm 0,0 UV-I 55 W/m 6,2 C 2,6 C 21,0 km/h (4 Bft) 97,80 %
06.10.2016 16:00 7,5 C 93 % 1015,9 hPa 0,0 l/m 14,4 km/h (3 Bft) W-SW 0,00 h 0,026 mm 0,0 UV-I 56 W/m 6,5 C 2,5 C 22,6 km/h (4 Bft) 99,52 %
06.10.2016 17:00 7,8 C 92 % 1015,8 hPa 0,0 l/m 13,6 km/h (3 Bft) W-SW 0,00 h 0,025 mm 0,0 UV-I 18 W/m 6,5 C 3,2 C 21,8 km/h (4 Bft) 98,52 %
06.10.2016 18:00 7,8 C 91 % 1016,0 hPa 0,2 l/m 12,0 km/h (2 Bft) SW 0,00 h 0,025 mm 0,0 UV-I 0 W/m 6,5 C 4,0 C 18,4 km/h (3 Bft) 99,36 %
06.10.2016 19:00 7,7 C 93 % 1016,2 hPa 0,0 l/m 9,5 km/h (2 Bft) W-SW 0,00 h 0,000 mm 0,0 UV-I 0 W/m 6,6 C 5,3 C 14,9 km/h (3 Bft) 97,91 %
06.10.2016 20:00 7,6 C 94 % 1016,3 hPa 0,4 l/m 8,2 km/h (2 Bft) W-SW 0,00 h 0,000 mm 0,0 UV-I 0 W/m 6,7 C 6,2 C 13,1 km/h (3 Bft) 99,65 %
06.10.2016 21:00 7,5 C 95 % 1016,3 hPa 1,0 l/m 5,9 km/h (2 Bft) SW 0,00 h 0,000 mm 0,0 UV-I 0 W/m 6,7 C 7,1 C 9,3 km/h (2 Bft) 98,01 %
06.10.2016 22:00 7,4 C 96 % 1016,2 hPa 0,4 l/m 7,5 km/h (2 Bft) SW 0,00 h 0,000 mm 0,0 UV-I 0 W/m 6,8 C 6,5 C 11,9 km/h (2 Bft) 99,35 %
06.10.2016 23:00 7,5 C 96 % 1016,2 hPa 1,0 l/m 8,9 km/h (2 Bft) SW 0,00 h 0,000 mm 0,0 UV-I 0 W/m 6,9 C 5,6 C 13,9 km/h (3 Bft) 98,18 %
07.10.2016 00:00 7,5 C 96 % 1016,2 hPa 0,6 l/m 7,1 km/h (2 Bft) W-SW 0,00 h 0,000 mm 0,0 UV-I 0 W/m 6,9 C 6,7 C 11,5 km/h (2 Bft) 99,19 %
07.10.2016 01:00 7,4 C 97 % 1016,1 hPa 1,0 l/m 6,2 km/h (2 Bft) SW 0,00 h 0,000 mm 0,0 UV-I 0 W/m 6,9 C 7,2 C 9,7 km/h (2 Bft) 97,80 %
07.10.2016 02:00 7,4 C 97 % 1015,8 hPa 0,4 l/m 1,2 km/h (1 Bft) S-SW 0,00 h 0,000 mm 0,0 UV-I 0 W/m 7,0 C 7,4 C 2,5 km/h (1 Bft) 99,37 %
07.10.2016 03:00 7,6 C 97 % 1015,3 hPa 0,2 l/m 2,1 km/h (1 Bft) S-SW 0,00 h 0,000 mm 0,0 UV-I 0 W/m 7,1 C 7,6 C 3,9 km/h (1 Bft) 97,88 %
07.10.2016 04:00 7,6 C 97 % 1015,2 hPa 0,2 l/m 1,1 km/h (1 Bft) S-SW 0,00 h 0,000 mm 0,0 UV-I 0 W/m 7,2 C 7,6 C 2,2 km/h (1 Bft) 99,35 %
07.10.2016 05:00 7,6 C 97 % 1015,2 hPa 0,2 l/m 2,7 km/h (1 Bft) SW 0,00 h 0,000 mm 0,0 UV-I 0 W/m 7,2 C 7,6 C 4,7 km/h (1 Bft) 97,84 %
07.10.2016 06:00 7,5 C 97 % 1015,4 hPa 0,6 l/m 3,1 km/h (1 Bft) SW 0,00 h 0,000 mm 0,0 UV-I 0 W/m 7,1 C 7,5 C 5,2 km/h (1 Bft) 99,36 %
07.10.2016 07:00 7,2 C 97 % 1015,6 hPa 0,4 l/m 3,3 km/h (1 Bft) O-NO 0,00 h 0,000 mm 0,0 UV-I 10 W/m 6,7 C 7,2 C 5,2 km/h (1 Bft) 98,14 %
07.10.2016 08:00 7,2 C 97 % 1015,9 hPa 0,0 l/m 3,6 km/h (1 Bft) O-NO 0,00 h 0,000 mm 0,0 UV-I 27 W/m 6,7 C 7,2 C 5,8 km/h (1 Bft) 99,03 %
07.10.2016 09:00 7,4 C 97 % 1016,1 hPa 0,0 l/m 2,3 km/h (1 Bft) O-SO 0,00 h 0,025 mm 0,3 UV-I 97 W/m 6,9 C 7,4 C 4,2 km/h (1 Bft) 97,72 %
07.10.2016 10:00 8,3 C 93 % 1016,4 hPa 0,0 l/m 4,9 km/h (1 Bft) NO 0,00 h 0,051 mm 0,6 UV-I 181 W/m 7,3 C 8,3 C 7,7 km/h (2 Bft) 99,40 %
07.10.2016 11:00 9,1 C 88 % 1016,4 hPa 0,0 l/m 4,9 km/h (1 Bft) O-NO 0,03 h 0,076 mm 1,0 UV-I 228 W/m 7,2 C 9,0 C 7,7 km/h (2 Bft) 98,40 %
07.10.2016 12:00 9,4 C 86 % 1016,4 hPa 0,0 l/m 8,4 km/h (2 Bft) O-NO 0,07 h 0,102 mm 0,9 UV-I 219 W/m 7,2 C 7,6 C 12,5 km/h (3 Bft) 99,44 %
07.10.2016 13:00 8,4 C 91 % 1016,6 hPa 0,0 l/m 9,9 km/h (2 Bft) O-NO 0,00 h 0,102 mm 0,7 UV-I 175 W/m 6,9 C 5,9 C 14,6 km/h (3 Bft) 98,29 %
07.10.2016 14:00 8,5 C 89 % 1016,6 hPa 0,0 l/m 6,8 km/h (2 Bft) NO 0,00 h 0,076 mm 0,5 UV-I 121 W/m 6,7 C 8,1 C 10,1 km/h (2 Bft) 99,25 %
07.10.2016 15:00 8,6 C 87 % 1016,7 hPa 0,0 l/m 5,5 km/h (1 Bft) NO 0,00 h 0,051 mm 0,0 UV-I 109 W/m 6,6 C 8,4 C 8,0 km/h (2 Bft) 98,38 %
07.10.2016 16:00 8,7 C 87 % 1016,8 hPa 0,0 l/m 5,1 km/h (1 Bft) O-NO 0,00 h 0,050 mm 0,0 UV-I 112 W/m 6,8 C 8,7 C 7,9 km/h (2 Bft) 99,24 %
07.10.2016 17:00 8,6 C 88 % 1017,0 hPa 0,0 l/m 2,5 km/h (1 Bft) O 0,00 h 0,051 mm 0,0 UV-I 32 W/m 6,7 C 8,6 C 4,3 km/h (1 Bft) 97,91 %
07.10.2016 18:00 8,3 C 91 % 1017,3 hPa 0,0 l/m 1,8 km/h (1 Bft) O 0,00 h 0,026 mm 0,0 UV-I 7 W/m 6,9 C 8,3 C 3,3 km/h (1 Bft) 99,17 %
07.10.2016 19:00 7,7 C 93 % 1017,4 hPa 0,0 l/m 1,9 km/h (1 Bft) O 0,00 h 0,000 mm 0,0 UV-I 0 W/m 6,5 C 7,7 C 3,1 km/h (1 Bft) 98,36 %
07.10.2016 20:00 6,8 C 94 % 1017,6 hPa 0,0 l/m 0,6 km/h (0 Bft) O 0,00 h 0,000 mm 0,0 UV-I 0 W/m 5,9 C 6,8 C 1,5 km/h (1 Bft) 98,96 %
07.10.2016 21:00 6,8 C 95 % 1017,6 hPa 0,0 l/m 0,5 km/h (0 Bft) O 0,00 h 0,000 mm 0,0 UV-I 0 W/m 6,1 C 6,8 C 0,9 km/h (0 Bft) 98,09 %
07.10.2016 22:00 6,7 C 96 % 1017,6 hPa 0,0 l/m 0,2 km/h (0 Bft) O 0,00 h 0,000 mm 0,0 UV-I 0 W/m 6,1 C 6,7 C 0,7 km/h (0 Bft) 98,99 %
07.10.2016 23:00 6,7 C 96 % 1017,8 hPa 0,0 l/m 0,1 km/h (0 Bft) N 0,00 h 0,000 mm 0,0 UV-I 0 W/m 6,1 C 6,7 C 0,5 km/h (0 Bft) 98,39 %
08.10.2016 00:00 6,9 C 96 % 1017,7 hPa 0,0 l/m 0,5 km/h (0 Bft) O 0,00 h 0,000 mm 0,0 UV-I 0 W/m 6,3 C 6,9 C 1,1 km/h (1 Bft) 99,31 %
08.10.2016 01:00 7,0 C 97 % 1017,8 hPa 0,2 l/m 0,3 km/h (0 Bft) O 0,00 h 0,000 mm 0,0 UV-I 0 W/m 6,5 C 7,0 C 1,4 km/h (1 Bft) 98,45 %
08.10.2016 02:00 6,9 C 97 % 1017,7 hPa 0,0 l/m 0,1 km/h (0 Bft) N 0,00 h 0,000 mm 0,0 UV-I 0 W/m 6,5 C 6,9 C 0,5 km/h (0 Bft) 99,05 %
08.10.2016 03:00 6,6 C 97 % 1017,4 hPa 0,0 l/m 0,9 km/h (0 Bft) O 0,00 h 0,000 mm 0,0 UV-I 0 W/m 6,1 C 6,6 C 2,1 km/h (1 Bft) 98,20 %
08.10.2016 04:00 6,3 C 97 % 1017,0 hPa 0,0 l/m 1,2 km/h (1 Bft) O 0,00 h 0,000 mm 0,0 UV-I 0 W/m 5,9 C 6,3 C 2,8 km/h (1 Bft) 98,99 %
08.10.2016 05:00 6,6 C 97 % 1016,8 hPa 0,0 l/m 1,0 km/h (0 Bft) S-SO 0,00 h 0,000 mm 0,0 UV-I 0 W/m 6,1 C 6,6 C 1,9 km/h (1 Bft) 98,18 %
08.10.2016 06:00 6,6 C 97 % 1016,9 hPa 0,4 l/m 0,3 km/h (0 Bft) O-SO 0,00 h 0,000 mm 0,0 UV-I 0 W/m 6,2 C 6,6 C 0,7 km/h (0 Bft) 98,84 %
08.10.2016 07:00 6,7 C 97 % 1017,2 hPa 0,0 l/m 1,1 km/h (1 Bft) O-NO 0,00 h 0,000 mm 0,0 UV-I 9 W/m 6,3 C 6,7 C 2,3 km/h (1 Bft) 98,24 %
08.10.2016 08:00 6,9 C 97 % 1017,4 hPa 0,2 l/m 0,5 km/h (0 Bft) O-NO 0,00 h 0,000 mm 0,0 UV-I 45 W/m 6,5 C 6,9 C 1,4 km/h (1 Bft) 98,81 %
08.10.2016 09:00 7,3 C 97 % 1017,6 hPa 0,0 l/m 0,6 km/h (0 Bft) O-NO 0,00 h 0,025 mm 0,0 UV-I 88 W/m 6,9 C 7,3 C 1,9 km/h (1 Bft) 98,34 %
08.10.2016 10:00 7,8 C 97 % 1017,9 hPa 0,0 l/m 1,2 km/h (1 Bft) W-SW 0,00 h 0,026 mm 0,5 UV-I 96 W/m 7,4 C 7,8 C 2,8 km/h (1 Bft) 98,70 %
08.10.2016 11:00 8,6 C 95 % 1018,2 hPa 0,0 l/m 0,6 km/h (0 Bft) NW 0,00 h 0,051 mm 0,5 UV-I 128 W/m 7,8 C 8,6 C 2,3 km/h (1 Bft) 98,61 %
08.10.2016 12:00 9,1 C 91 % 1018,4 hPa 0,0 l/m 0,7 km/h (0 Bft) NW 0,00 h 0,050 mm 0,5 UV-I 131 W/m 7,8 C 9,1 C 2,0 km/h (1 Bft) 98,76 %
08.10.2016 13:00 9,6 C 89 % 1018,5 hPa 0,0 l/m 2,3 km/h (1 Bft) SW 0,00 h 0,051 mm 0,6 UV-I 148 W/m 7,9 C 9,6 C 4,5 km/h (1 Bft) 98,57 %
08.10.2016 14:00 10,1 C 86 % 1018,5 hPa 0,0 l/m 2,4 km/h (1 Bft) W-SW 0,00 h 0,076 mm 0,6 UV-I 175 W/m 7,8 C 10,1 C 4,6 km/h (1 Bft) 98,95 %
08.10.2016 15:00 9,9 C 84 % 1018,7 hPa 1,6 l/m 4,2 km/h (1 Bft) W-SW 0,00 h 0,077 mm 0,6 UV-I 112 W/m 7,3 C 9,5 C 8,2 km/h (2 Bft) 98,77 %
08.10.2016 16:00 8,2 C 90 % 1019,0 hPa 0,4 l/m 2,2 km/h (1 Bft) NO 0,00 h 0,050 mm 0,0 UV-I 81 W/m 6,7 C 8,1 C 4,3 km/h (1 Bft) 98,69 %
08.10.2016 17:00 8,2 C 93 % 1019,4 hPa 0,0 l/m 2,0 km/h (1 Bft) S-SO 0,00 h 0,051 mm 0,0 UV-I 37 W/m 7,0 C 8,2 C 3,9 km/h (1 Bft) 98,86 %
08.10.2016 18:00 7,6 C 94 % 1020,0 hPa 0,0 l/m 2,2 km/h (1 Bft) O-SO 0,00 h 0,026 mm 0,0 UV-I 8 W/m 6,7 C 7,6 C 3,4 km/h (1 Bft) 98,81 %
08.10.2016 19:00 7,6 C 95 % 1020,5 hPa 0,2 l/m 1,9 km/h (1 Bft) S-SO 0,00 h 0,000 mm 0,0 UV-I 0 W/m 6,8 C 7,6 C 4,5 km/h (1 Bft) 98,57 %
08.10.2016 20:00 7,7 C 95 % 1020,9 hPa 0,0 l/m 7,5 km/h (2 Bft) S-SW 0,00 h 0,000 mm 0,0 UV-I 0 W/m 6,9 C 6,5 C 11,4 km/h (2 Bft) 98,65 %
08.10.2016 21:00 7,3 C 94 % 1021,0 hPa 0,2 l/m 8,2 km/h (2 Bft) S-SW 0,00 h 0,000 mm 0,0 UV-I 0 W/m 6,5 C 6,0 C 12,7 km/h (3 Bft) 99,22 %
08.10.2016 22:00 7,3 C 94 % 1021,3 hPa 0,0 l/m 7,2 km/h (2 Bft) SW 0,00 h 0,000 mm 0,0 UV-I 0 W/m 6,4 C 6,4 C 11,6 km/h (2 Bft) 98,57 %
08.10.2016 23:00 7,2 C 94 % 1021,4 hPa 0,0 l/m 6,5 km/h (2 Bft) SW 0,00 h 0,000 mm 0,0 UV-I 0 W/m 6,3 C 6,7 C 10,0 km/h (2 Bft) 98,85 %
09.10.2016 00:00 6,5 C 94 % 1021,2 hPa 0,0 l/m 7,6 km/h (2 Bft) SW 0,00 h 0,000 mm 0,0 UV-I 0 W/m 5,6 C 5,5 C 11,2 km/h (2 Bft) 97,99 %
09.10.2016 01:00 6,2 C 95 % 1021,2 hPa 0,0 l/m 8,9 km/h (2 Bft) SW 0,00 h 0,000 mm 0,0 UV-I 0 W/m 5,4 C 4,2 C 13,5 km/h (3 Bft) 99,05 %
09.10.2016 02:00 6,1 C 95 % 1021,3 hPa 0,0 l/m 8,3 km/h (2 Bft) W-SW 0,00 h 0,000 mm 0,0 UV-I 0 W/m 5,3 C 4,5 C 12,4 km/h (3 Bft) 97,50 %
09.10.2016 03:00 6,0 C 95 % 1021,3 hPa 0,0 l/m 5,5 km/h (1 Bft) W-SW 0,00 h 0,000 mm 0,0 UV-I 0 W/m 5,3 C 5,8 C 8,0 km/h (2 Bft) 99,14 %
09.10.2016 04:00 5,2 C 96 % 1021,6 hPa 0,0 l/m 4,0 km/h (1 Bft) W-SW 0,00 h 0,000 mm 0,0 UV-I 0 W/m 4,6 C 5,2 C 6,5 km/h (2 Bft) 97,65 %
09.10.2016 05:00 4,8 C 97 % 1021,6 hPa 0,0 l/m 5,4 km/h (1 Bft) W-SW 0,00 h 0,000 mm 0,0 UV-I 0 W/m 4,3 C 4,6 C 8,4 km/h (2 Bft) 99,05 %
09.10.2016 06:00 4,6 C 96 % 1021,6 hPa 0,0 l/m 1,9 km/h (1 Bft) S-SW 0,00 h 0,000 mm 0,0 UV-I 0 W/m 4,1 C 4,6 C 3,9 km/h (1 Bft) 97,84 %
09.10.2016 07:00 3,5 C 97 % 1021,8 hPa 0,0 l/m 0,6 km/h (0 Bft) S-SW 0,13 h 0,000 mm 0,0 UV-I 26 W/m 3,1 C 3,5 C 1,8 km/h (1 Bft) 98,44 %
09.10.2016 08:00 4,6 C 97 % 1022,1 hPa 0,0 l/m 3,3 km/h (1 Bft) S-SW 0,63 h 0,000 mm 0,0 UV-I 119 W/m 4,2 C 4,6 C 5,6 km/h (1 Bft) 97,86 %
09.10.2016 09:00 6,4 C 95 % 1022,5 hPa 0,0 l/m 3,3 km/h (1 Bft) W-SW 0,13 h 0,051 mm 0,5 UV-I 151 W/m 5,7 C 6,4 C 5,9 km/h (2 Bft) 98,79 %
09.10.2016 10:00 7,8 C 91 % 1022,4 hPa 0,0 l/m 3,1 km/h (1 Bft) W-SW 0,17 h 0,076 mm 0,9 UV-I 259 W/m 6,4 C 7,8 C 6,3 km/h (2 Bft) 97,95 %
09.10.2016 11:00 9,4 C 85 % 1022,3 hPa 0,0 l/m 3,0 km/h (1 Bft) W-NW 0,80 h 0,127 mm 1,6 UV-I 490 W/m 7,0 C 9,4 C 6,8 km/h (2 Bft) 98,92 %
09.10.2016 12:00 9,9 C 84 % 1022,4 hPa 0,0 l/m 3,5 km/h (1 Bft) N-NW 0,50 h 0,229 mm 1,6 UV-I 389 W/m 7,2 C 9,9 C 8,3 km/h (2 Bft) 97,50 %
09.10.2016 13:00 10,7 C 80 % 1022,1 hPa 0,0 l/m 3,5 km/h (1 Bft) N-NW 0,90 h 0,177 mm 1,8 UV-I 533 W/m 7,4 C 10,7 C 8,2 km/h (2 Bft) 98,87 %
09.10.2016 14:00 11,0 C 75 % 1021,8 hPa 0,0 l/m 2,8 km/h (1 Bft) N-NW 0,60 h 0,254 mm 1,3 UV-I 381 W/m 6,7 C 10,9 C 6,4 km/h (2 Bft) 98,50 %
09.10.2016 15:00 11,4 C 71 % 1021,4 hPa 0,0 l/m 1,8 km/h (1 Bft) N-NO 0,77 h 0,204 mm 0,9 UV-I 348 W/m 6,3 C 11,4 C 3,8 km/h (1 Bft) 98,26 %
09.10.2016 16:00 11,7 C 69 % 1021,0 hPa 0,0 l/m 2,7 km/h (1 Bft) N-NO 1,00 h 0,177 mm 0,5 UV-I 283 W/m 6,2 C 11,7 C 6,1 km/h (2 Bft) 98,62 %
09.10.2016 17:00 10,5 C 73 % 1021,1 hPa 0,0 l/m 1,7 km/h (1 Bft) N-NO 0,27 h 0,153 mm 0,0 UV-I 74 W/m 5,7 C 10,5 C 3,8 km/h (1 Bft) 98,58 %
09.10.2016 18:00 8,5 C 85 % 1021,3 hPa 0,0 l/m 1,4 km/h (1 Bft) N-NO 0,00 h 0,051 mm 0,0 UV-I 11 W/m 6,0 C 8,5 C 2,5 km/h (1 Bft) 97,49 %
09.10.2016 19:00 6,3 C 90 % 1021,8 hPa 0,0 l/m 1,3 km/h (1 Bft) N-NO 0,00 h 0,000 mm 0,0 UV-I 0 W/m 4,9 C 6,3 C 2,6 km/h (1 Bft) 99,15 %
09.10.2016 20:00 5,5 C 93 % 1022,2 hPa 0,0 l/m 0,5 km/h (0 Bft) O-SO 0,00 h 0,000 mm 0,0 UV-I 0 W/m 4,4 C 5,5 C 1,4 km/h (1 Bft) 97,54 %
09.10.2016 21:00 5,3 C 94 % 1022,6 hPa 0,0 l/m 0,8 km/h (0 Bft) O-NO 0,00 h 0,000 mm 0,0 UV-I 0 W/m 4,5 C 5,3 C 1,7 km/h (1 Bft) 98,97 %
09.10.2016 22:00 5,1 C 95 % 1022,9 hPa 0,0 l/m 1,0 km/h (0 Bft) O-NO 0,00 h 0,000 mm 0,0 UV-I 0 W/m 4,3 C 5,1 C 2,1 km/h (1 Bft) 97,93 %
09.10.2016 23:00 4,4 C 95 % 1023,1 hPa 0,0 l/m 0,4 km/h (0 Bft) O 0,00 h 0,000 mm 0,0 UV-I 0 W/m 3,7 C 4,4 C 1,2 km/h (1 Bft) 99,09 %
Min-Datum _ 05.10.16 05.10.16 07.10.16 - 05.10.16 - - - - - 05.10.16 06.10.16 05.10.16 03.10.16
_ Min-Zeit 03:04 13:34 04:50 - 00:30 - - - - - 13:36 09:36 00:30 00:02
Minimum _ 3,4 C 56 % 1015,1 hPa - 0,0 km/h (0 Bft) - - - - - 1,6 C -3,3 C 0,0 km/h (0 Bft) 5,56 %
Max-Datum _ 03.10.16 08.10.16 04.10.16 04.10.16 03.10.16 - 05.10.16 05.10.16 03.10.16 05.10.16 03.10.16 03.10.16 04.10.16 03.10.16
_ Max-Zeit 15:16 08:42 22:46 14:02 15:18 - 18:09 13:00 13:14 13:26 00:00 16:42 12:20 00:00
Maximum _ 13,7 C 98 % 1028,8 hPa 2,4 l/m 24,3 km/h
W-SW (4 Bft)
- 0,05 h 0,254 mm 2,7 UV-I 861 W/m 10,7 C 12,8 C 40,2 km/h
W-SW (6 Bft)
100,00 %
Durchschnitt _ 8,1 C 90 % 1020,9 hPa #27,0 l/m 7,3 km/h (2 Bft) W-SW #13:15 h #6,173 mm 0,9 UV-I 132 W/m 6,6 C 6,3 C 11,8 km/h (2 Bft) 98,61 %